Home   Weather   Poland   Kraków   Past weeks
Flag for Poland

Past Weather in Kraków, Poland — Yesterday and Last 2 Weeks

Currently: 73 °F. Passing clouds. (Weather station: Krakow Airport, Poland). See more current weather

Past Weather in Kraków — Graph

°F

Kraków Temperature Yesterday

Maximum temperature yesterday: 72 °F (at 4:30 pm)
Minimum temperature yesterday: 55 °F (at 11:00 pm)
Average temperature yesterday: 62 °F

High & Low Weather Summary for the Past Weeks

 TemperatureHumidityPressure
High86 °F (Jul 28, 2:30 pm)100% (Jul 25, 3:30 am)30.18 "Hg (Jul 25, 3:30 am)
Low50 °F (Aug 3, 5:30 am)42% (Jul 19, 4:30 pm)29.65 "Hg (Aug 1, 6:00 pm)
Average69 °F75%29.95 "Hg
* Reported Jul 19 4:00 pm — Aug 3 4:30 pm, Kraków. Weather by CustomWeather, © 2021

Note: Actual official high and low records may vary slightly from our data, if they occured in-between our weather recording intervals... More about our weather records

Kraków Weather History for the Previous 24 Hours

Scroll right to see more
 ConditionsComfort  
Time TempWeatherWind HumidityBarometerVisibility
4:30 pm
Tue, Aug 3
73 °FPassing clouds.8 mph57%29.95 "HgN/A
4:00 pm72 °FSunny.8 mph50%29.95 "Hg10 mi
3:30 pm73 °FPassing clouds.8 mph57%29.95 "HgN/A
3:00 pm72 °FScattered clouds.7 mph61%29.98 "HgN/A
2:30 pm72 °FScattered clouds.6 mph53%29.98 "HgN/A
2:00 pm72 °FScattered clouds.9 mph57%29.98 "HgN/A
1:30 pm73 °FPassing clouds.6 mph57%29.98 "HgN/A
1:00 pm72 °FPassing clouds.6 mph61%30.01 "HgN/A
12:30 pm72 °FPassing clouds.7 mph57%30.01 "HgN/A
12:00 pm72 °FPassing clouds.7 mph57%30.01 "HgN/A
11:30 am70 °FPassing clouds.8 mph57%30.01 "HgN/A
11:00 am68 °FPassing clouds.8 mph60%30.01 "HgN/A
10:30 am68 °FPassing clouds.7 mph69%30.01 "HgN/A
10:00 am68 °FPassing clouds.5 mph64%30.01 "HgN/A
9:30 am66 °FPassing clouds.3 mph68%30.01 "HgN/A
9:00 am64 °FPassing clouds.5 mph78%30.01 "HgN/A
8:30 am61 °FPassing clouds.3 mph83%30.01 "HgN/A
8:00 am59 °FSunny.3 mph88%30.01 "Hg10 mi
7:30 am57 °FSunny.3 mph88%30.01 "Hg10 mi
7:00 am55 °FSunny.1 mph94%30.01 "Hg10 mi
6:30 am54 °FSunny.2 mph94%30.01 "Hg10 mi
6:00 am52 °FSunny.1 mph94%30.01 "Hg10 mi
5:30 am50 °FFog.2 mph100%30.01 "HgN/A
5:00 am52 °FFog.2 mph94%30.01 "HgN/A
4:30 am52 °FClear.1 mph100%29.98 "Hg10 mi
4:00 am52 °FClear.2 mph100%29.98 "Hg10 mi
3:30 am52 °FClear.No wind100%29.98 "Hg10 mi
3:00 am52 °FClear.1 mph100%29.98 "Hg10 mi
2:30 am54 °FClear.No wind94%29.98 "Hg10 mi
1:30 am54 °FClear.1 mph94%29.98 "Hg10 mi
1:00 am54 °FClear.1 mph100%29.98 "Hg10 mi
12:30 am55 °FClear.1 mph94%29.98 "Hg10 mi
12:00 am55 °FClear.2 mph94%29.98 "Hg10 mi
11:30 pm
Mon, Aug 2
55 °FClear.1 mph94%29.98 "Hg10 mi
11:00 pm55 °FClear.2 mph94%29.98 "Hg10 mi
10:30 pm57 °FClear.1 mph94%29.98 "Hg10 mi
10:00 pm57 °FClear.1 mph88%29.98 "Hg10 mi
9:30 pm57 °FClear.2 mph94%29.98 "Hg10 mi
9:00 pm57 °FClear.2 mph94%29.95 "Hg10 mi
8:30 pm59 °FClear.7 mph88%29.95 "Hg10 mi
8:00 pm61 °FPassing clouds.9 mph83%29.95 "HgN/A
7:30 pm61 °FScattered clouds.13 mph88%29.95 "HgN/A
7:00 pm63 °FScattered clouds.10 mph73%29.92 "HgN/A
6:30 pm63 °FSprinkles. Scattered clouds.20 mph77%29.92 "HgN/A
6:00 pm68 °FPassing clouds.8 mph64%29.92 "HgN/A
5:30 pm68 °FPassing clouds.12 mph64%29.92 "HgN/A
5:00 pm72 °FPassing clouds.12 mph61%29.89 "HgN/A
Weather by CustomWeather, © 2021

See weather overview